sensor_id;sensor_type;location;lat;lon;timestamp;P1;durP1;ratioP1;P2;durP2;ratioP2
74614;SDS011;63121;51.458;-0.110;2023-02-14T00:01:46;29.08;;;11.77;;
74614;SDS011;63121;51.458;-0.110;2023-02-14T00:04:12;25.63;;;11.05;;
74614;SDS011;63121;51.458;-0.110;2023-02-14T00:06:39;29.95;;;12.10;;
74614;SDS011;63121;51.458;-0.110;2023-02-14T00:09:06;27.90;;;10.15;;
74614;SDS011;63121;51.458;-0.110;2023-02-14T00:11:32;26.13;;;10.15;;
74614;SDS011;63121;51.458;-0.110;2023-02-14T00:13:58;28.45;;;11.45;;
74614;SDS011;63121;51.458;-0.110;2023-02-14T00:16:42;28.58;;;10.77;;
74614;SDS011;63121;51.458;-0.110;2023-02-14T00:19:10;28.50;;;10.70;;
74614;SDS011;63121;51.458;-0.110;2023-02-14T00:21:37;30.88;;;11.60;;
74614;SDS011;63121;51.458;-0.110;2023-02-14T00:24:10;30.48;;;11.70;;
74614;SDS011;63121;51.458;-0.110;2023-02-14T00:26:38;25.77;;;10.20;;
74614;SDS011;63121;51.458;-0.110;2023-02-14T00:29:04;28.98;;;11.23;;
74614;SDS011;63121;51.458;-0.110;2023-02-14T00:33:56;28.42;;;10.43;;
74614;SDS011;63121;51.458;-0.110;2023-02-14T00:36:22;30.80;;;10.98;;
74614;SDS011;63121;51.458;-0.110;2023-02-14T00:38:47;28.60;;;10.88;;
74614;SDS011;63121;51.458;-0.110;2023-02-14T00:41:13;27.53;;;9.90;;
74614;SDS011;63121;51.458;-0.110;2023-02-14T00:43:43;26.10;;;10.20;;
74614;SDS011;63121;51.458;-0.110;2023-02-14T00:46:13;30.02;;;10.50;;
74614;SDS011;63121;51.458;-0.110;2023-02-14T00:48:38;29.63;;;11.07;;
74614;SDS011;63121;51.458;-0.110;2023-02-14T00:51:04;26.20;;;10.20;;
74614;SDS011;63121;51.458;-0.110;2023-02-14T00:53:30;24.63;;;9.70;;
74614;SDS011;63121;51.458;-0.110;2023-02-14T00:55:55;25.13;;;9.73;;
74614;SDS011;63121;51.458;-0.110;2023-02-14T00:58:21;27.13;;;9.80;;
74614;SDS011;63121;51.458;-0.110;2023-02-14T01:00:46;26.50;;;10.43;;
74614;SDS011;63121;51.458;-0.110;2023-02-14T01:03:11;26.10;;;10.87;;
74614;SDS011;63121;51.458;-0.110;2023-02-14T01:05:37;25.30;;;9.73;;
74614;SDS011;63121;51.458;-0.110;2023-02-14T01:08:02;23.83;;;9.75;;
74614;SDS011;63121;51.458;-0.110;2023-02-14T01:10:28;25.27;;;9.90;;
74614;SDS011;63121;51.458;-0.110;2023-02-14T01:12:53;26.67;;;10.77;;
74614;SDS011;63121;51.458;-0.110;2023-02-14T01:15:18;28.40;;;9.90;;
74614;SDS011;63121;51.458;-0.110;2023-02-14T01:17:44;25.98;;;10.27;;
74614;SDS011;63121;51.458;-0.110;2023-02-14T01:20:09;22.93;;;9.97;;
74614;SDS011;63121;51.458;-0.110;2023-02-14T01:22:35;26.88;;;10.48;;
74614;SDS011;63121;51.458;-0.110;2023-02-14T01:25:02;26.35;;;10.85;;
74614;SDS011;63121;51.458;-0.110;2023-02-14T01:27:28;29.80;;;10.25;;
74614;SDS011;63121;51.458;-0.110;2023-02-14T01:29:53;25.30;;;9.80;;
74614;SDS011;63121;51.458;-0.110;2023-02-14T01:32:18;25.88;;;10.13;;
74614;SDS011;63121;51.458;-0.110;2023-02-14T01:34:44;28.73;;;10.10;;
74614;SDS011;63121;51.458;-0.110;2023-02-14T01:37:09;26.93;;;10.93;;
74614;SDS011;63121;51.458;-0.110;2023-02-14T01:39:34;26.93;;;10.47;;
74614;SDS011;63121;51.458;-0.110;2023-02-14T01:42:00;26.80;;;10.73;;
74614;SDS011;63121;51.458;-0.110;2023-02-14T01:46:50;28.40;;;10.60;;
74614;SDS011;63121;51.458;-0.110;2023-02-14T01:49:17;24.52;;;9.95;;
74614;SDS011;63121;51.458;-0.110;2023-02-14T01:51:49;28.50;;;10.80;;
74614;SDS011;63121;51.458;-0.110;2023-02-14T01:54:21;25.63;;;11.15;;
74614;SDS011;63121;51.458;-0.110;2023-02-14T01:56:49;25.77;;;9.68;;
74614;SDS011;63121;51.458;-0.110;2023-02-14T01:59:18;26.55;;;10.15;;
74614;SDS011;63121;51.458;-0.110;2023-02-14T02:01:47;26.42;;;10.15;;
74614;SDS011;63121;51.458;-0.110;2023-02-14T02:04:15;26.63;;;10.30;;
74614;SDS011;63121;51.458;-0.110;2023-02-14T02:06:45;30.08;;;10.30;;
74614;SDS011;63121;51.458;-0.110;2023-02-14T02:12:03;25.98;;;10.05;;
74614;SDS011;63121;51.458;-0.110;2023-02-14T02:14:29;30.05;;;10.75;;
74614;SDS011;63121;51.458;-0.110;2023-02-14T02:30:23;26.13;;;9.98;;
74614;SDS011;63121;51.458;-0.110;2023-02-14T02:41:10;27.75;;;10.27;;
74614;SDS011;63121;51.458;-0.110;2023-02-14T02:52:26;26.30;;;9.85;;
74614;SDS011;63121;51.458;-0.110;2023-02-14T02:55:19;27.08;;;10.50;;
74614;SDS011;63121;51.458;-0.110;2023-02-14T02:57:53;24.50;;;9.00;;
74614;SDS011;63121;51.458;-0.110;2023-02-14T03:00:21;27.55;;;10.43;;
74614;SDS011;63121;51.458;-0.110;2023-02-14T03:08:00;24.02;;;9.35;;
74614;SDS011;63121;51.458;-0.110;2023-02-14T03:10:26;24.43;;;9.07;;
74614;SDS011;63121;51.458;-0.110;2023-02-14T03:15:51;25.42;;;9.55;;
74614;SDS011;63121;51.458;-0.110;2023-02-14T03:18:22;25.92;;;9.55;;
74614;SDS011;63121;51.458;-0.110;2023-02-14T03:24:13;27.33;;;9.90;;
74614;SDS011;63121;51.458;-0.110;2023-02-14T03:27:08;26.95;;;9.98;;
74614;SDS011;63121;51.458;-0.110;2023-02-14T03:38:03;25.48;;;9.57;;
74614;SDS011;63121;51.458;-0.110;2023-02-14T03:40:54;26.00;;;10.00;;
74614;SDS011;63121;51.458;-0.110;2023-02-14T03:43:29;26.23;;;10.27;;
74614;SDS011;63121;51.458;-0.110;2023-02-14T03:46:06;27.20;;;10.70;;
74614;SDS011;63121;51.458;-0.110;2023-02-14T03:48:40;26.92;;;10.70;;
74614;SDS011;63121;51.458;-0.110;2023-02-14T03:51:08;26.23;;;11.07;;
74614;SDS011;63121;51.458;-0.110;2023-02-14T03:53:37;28.35;;;10.18;;
74614;SDS011;63121;51.458;-0.110;2023-02-14T03:56:09;26.25;;;9.55;;
74614;SDS011;63121;51.458;-0.110;2023-02-14T03:58:37;27.95;;;10.43;;
74614;SDS011;63121;51.458;-0.110;2023-02-14T04:01:07;30.15;;;10.82;;
74614;SDS011;63121;51.458;-0.110;2023-02-14T04:03:38;28.10;;;11.07;;
74614;SDS011;63121;51.458;-0.110;2023-02-14T04:06:05;29.48;;;10.15;;
74614;SDS011;63121;51.458;-0.110;2023-02-14T04:08:31;30.38;;;10.75;;
74614;SDS011;63121;51.458;-0.110;2023-02-14T04:10:58;32.33;;;11.52;;
74614;SDS011;63121;51.458;-0.110;2023-02-14T04:13:25;28.70;;;10.98;;
74614;SDS011;63121;51.458;-0.110;2023-02-14T04:15:50;27.33;;;10.55;;
74614;SDS011;63121;51.458;-0.110;2023-02-14T04:18:15;28.98;;;10.90;;
74614;SDS011;63121;51.458;-0.110;2023-02-14T04:20:59;26.75;;;10.52;;
74614;SDS011;63121;51.458;-0.110;2023-02-14T04:23:25;28.87;;;10.97;;
74614;SDS011;63121;51.458;-0.110;2023-02-14T04:25:50;30.80;;;10.73;;
74614;SDS011;63121;51.458;-0.110;2023-02-14T04:28:16;26.20;;;10.35;;
74614;SDS011;63121;51.458;-0.110;2023-02-14T04:30:41;28.30;;;9.82;;
74614;SDS011;63121;51.458;-0.110;2023-02-14T04:33:06;28.80;;;10.02;;
74614;SDS011;63121;51.458;-0.110;2023-02-14T04:35:32;31.58;;;11.65;;
74614;SDS011;63121;51.458;-0.110;2023-02-14T04:37:59;27.08;;;10.55;;
74614;SDS011;63121;51.458;-0.110;2023-02-14T04:40:25;27.60;;;10.35;;
74614;SDS011;63121;51.458;-0.110;2023-02-14T04:42:50;25.92;;;10.15;;
74614;SDS011;63121;51.458;-0.110;2023-02-14T04:45:16;30.45;;;10.45;;
74614;SDS011;63121;51.458;-0.110;2023-02-14T04:47:42;26.27;;;10.32;;
74614;SDS011;63121;51.458;-0.110;2023-02-14T04:50:07;27.80;;;10.33;;
74614;SDS011;63121;51.458;-0.110;2023-02-14T04:52:33;26.23;;;9.57;;
74614;SDS011;63121;51.458;-0.110;2023-02-14T04:54:58;29.70;;;10.40;;
74614;SDS011;63121;51.458;-0.110;2023-02-14T04:57:23;29.80;;;11.02;;
74614;SDS011;63121;51.458;-0.110;2023-02-14T04:59:49;27.60;;;9.90;;
74614;SDS011;63121;51.458;-0.110;2023-02-14T05:02:14;29.83;;;10.03;;
74614;SDS011;63121;51.458;-0.110;2023-02-14T05:04:40;30.30;;;10.57;;
74614;SDS011;63121;51.458;-0.110;2023-02-14T05:07:05;28.35;;;9.57;;
74614;SDS011;63121;51.458;-0.110;2023-02-14T05:09:30;25.90;;;10.23;;
74614;SDS011;63121;51.458;-0.110;2023-02-14T05:11:56;27.73;;;10.88;;
74614;SDS011;63121;51.458;-0.110;2023-02-14T05:14:21;27.48;;;10.98;;
74614;SDS011;63121;51.458;-0.110;2023-02-14T05:16:47;30.00;;;10.98;;
74614;SDS011;63121;51.458;-0.110;2023-02-14T05:19:12;27.80;;;10.10;;
74614;SDS011;63121;51.458;-0.110;2023-02-14T05:21:37;26.90;;;9.77;;
74614;SDS011;63121;51.458;-0.110;2023-02-14T05:24:03;28.30;;;10.80;;
74614;SDS011;63121;51.458;-0.110;2023-02-14T05:26:28;28.25;;;10.48;;
74614;SDS011;63121;51.458;-0.110;2023-02-14T05:28:54;25.67;;;10.02;;
74614;SDS011;63121;51.458;-0.110;2023-02-14T05:31:20;31.88;;;11.35;;
74614;SDS011;63121;51.458;-0.110;2023-02-14T05:33:46;25.88;;;9.57;;
74614;SDS011;63121;51.458;-0.110;2023-02-14T05:36:11;29.23;;;10.13;;
74614;SDS011;63121;51.458;-0.110;2023-02-14T05:38:36;27.83;;;9.47;;
74614;SDS011;63121;51.458;-0.110;2023-02-14T05:41:02;29.70;;;10.77;;
74614;SDS011;63121;51.458;-0.110;2023-02-14T05:43:27;28.75;;;10.13;;
74614;SDS011;63121;51.458;-0.110;2023-02-14T05:45:54;25.35;;;9.88;;
74614;SDS011;63121;51.458;-0.110;2023-02-14T05:48:19;29.35;;;11.15;;
74614;SDS011;63121;51.458;-0.110;2023-02-14T05:50:45;27.05;;;9.95;;
74614;SDS011;63121;51.458;-0.110;2023-02-14T05:53:10;28.97;;;10.53;;
74614;SDS011;63121;51.458;-0.110;2023-02-14T05:55:36;28.55;;;10.70;;
74614;SDS011;63121;51.458;-0.110;2023-02-14T05:58:02;30.00;;;11.38;;
74614;SDS011;63121;51.458;-0.110;2023-02-14T06:00:27;29.17;;;10.93;;
74614;SDS011;63121;51.458;-0.110;2023-02-14T06:02:53;28.47;;;10.77;;
74614;SDS011;63121;51.458;-0.110;2023-02-14T06:05:18;31.70;;;11.45;;
74614;SDS011;63121;51.458;-0.110;2023-02-14T06:07:44;29.15;;;10.77;;
74614;SDS011;63121;51.458;-0.110;2023-02-14T06:10:14;27.27;;;10.60;;
74614;SDS011;63121;51.458;-0.110;2023-02-14T06:12:44;32.00;;;10.77;;
74614;SDS011;63121;51.458;-0.110;2023-02-14T06:15:10;25.58;;;10.90;;
74614;SDS011;63121;51.458;-0.110;2023-02-14T06:17:35;30.17;;;10.93;;
74614;SDS011;63121;51.458;-0.110;2023-02-14T06:20:00;27.25;;;10.30;;
74614;SDS011;63121;51.458;-0.110;2023-02-14T06:22:26;31.03;;;11.30;;
74614;SDS011;63121;51.458;-0.110;2023-02-14T06:24:51;28.20;;;11.07;;
74614;SDS011;63121;51.458;-0.110;2023-02-14T06:27:16;29.17;;;11.23;;
74614;SDS011;63121;51.458;-0.110;2023-02-14T06:29:42;32.70;;;11.97;;
74614;SDS011;63121;51.458;-0.110;2023-02-14T06:32:07;30.33;;;12.13;;
74614;SDS011;63121;51.458;-0.110;2023-02-14T06:34:32;30.70;;;12.33;;
74614;SDS011;63121;51.458;-0.110;2023-02-14T06:36:58;30.77;;;12.00;;
74614;SDS011;63121;51.458;-0.110;2023-02-14T06:39:24;30.13;;;12.27;;
74614;SDS011;63121;51.458;-0.110;2023-02-14T06:41:49;29.50;;;11.77;;
74614;SDS011;63121;51.458;-0.110;2023-02-14T06:44:14;30.05;;;11.48;;
74614;SDS011;63121;51.458;-0.110;2023-02-14T06:46:40;30.87;;;10.97;;
74614;SDS011;63121;51.458;-0.110;2023-02-14T06:49:05;29.00;;;11.63;;
74614;SDS011;63121;51.458;-0.110;2023-02-14T06:51:31;29.25;;;11.18;;
74614;SDS011;63121;51.458;-0.110;2023-02-14T06:53:56;28.23;;;11.32;;
74614;SDS011;63121;51.458;-0.110;2023-02-14T06:56:21;30.03;;;11.57;;
74614;SDS011;63121;51.458;-0.110;2023-02-14T06:58:47;33.70;;;12.30;;
74614;SDS011;63121;51.458;-0.110;2023-02-14T07:01:12;29.08;;;11.25;;
74614;SDS011;63121;51.458;-0.110;2023-02-14T07:03:38;28.77;;;12.13;;
74614;SDS011;63121;51.458;-0.110;2023-02-14T07:06:03;30.65;;;12.02;;
74614;SDS011;63121;51.458;-0.110;2023-02-14T07:08:29;31.08;;;12.20;;
74614;SDS011;63121;51.458;-0.110;2023-02-14T07:10:55;33.87;;;11.90;;
74614;SDS011;63121;51.458;-0.110;2023-02-14T07:13:21;32.97;;;12.45;;
74614;SDS011;63121;51.458;-0.110;2023-02-14T07:15:46;32.45;;;12.80;;
74614;SDS011;63121;51.458;-0.110;2023-02-14T07:18:12;35.38;;;13.35;;
74614;SDS011;63121;51.458;-0.110;2023-02-14T07:20:37;31.10;;;12.23;;
74614;SDS011;63121;51.458;-0.110;2023-02-14T07:23:03;29.47;;;12.13;;
74614;SDS011;63121;51.458;-0.110;2023-02-14T07:25:28;31.07;;;12.07;;
74614;SDS011;63121;51.458;-0.110;2023-02-14T07:27:53;29.42;;;11.75;;
74614;SDS011;63121;51.458;-0.110;2023-02-14T07:30:19;29.65;;;11.52;;
74614;SDS011;63121;51.458;-0.110;2023-02-14T07:32:44;29.50;;;11.85;;
74614;SDS011;63121;51.458;-0.110;2023-02-14T07:35:10;31.55;;;12.48;;
74614;SDS011;63121;51.458;-0.110;2023-02-14T07:37:36;35.63;;;12.90;;
74614;SDS011;63121;51.458;-0.110;2023-02-14T07:40:02;31.10;;;12.23;;
74614;SDS011;63121;51.458;-0.110;2023-02-14T07:42:28;30.08;;;12.13;;
74614;SDS011;63121;51.458;-0.110;2023-02-14T07:44:53;33.33;;;12.45;;
74614;SDS011;63121;51.458;-0.110;2023-02-14T07:47:18;34.70;;;12.97;;
74614;SDS011;63121;51.458;-0.110;2023-02-14T07:49:44;33.55;;;12.48;;
74614;SDS011;63121;51.458;-0.110;2023-02-14T07:52:09;32.38;;;13.07;;
74614;SDS011;63121;51.458;-0.110;2023-02-14T07:54:35;35.38;;;13.90;;
74614;SDS011;63121;51.458;-0.110;2023-02-14T07:57:02;34.25;;;12.32;;
74614;SDS011;63121;51.458;-0.110;2023-02-14T07:59:28;32.65;;;12.63;;
74614;SDS011;63121;51.458;-0.110;2023-02-14T08:01:54;35.60;;;13.25;;
74614;SDS011;63121;51.458;-0.110;2023-02-14T08:04:19;33.85;;;12.00;;
74614;SDS011;63121;51.458;-0.110;2023-02-14T08:06:45;35.53;;;13.05;;
74614;SDS011;63121;51.458;-0.110;2023-02-14T08:09:10;31.15;;;12.43;;
74614;SDS011;63121;51.458;-0.110;2023-02-14T08:11:48;40.67;;;13.52;;
74614;SDS011;63121;51.458;-0.110;2023-02-14T08:14:39;36.22;;;13.50;;
74614;SDS011;63121;51.458;-0.110;2023-02-14T08:17:05;34.42;;;13.32;;
74614;SDS011;63121;51.458;-0.110;2023-02-14T08:19:32;35.05;;;12.93;;
74614;SDS011;63121;51.458;-0.110;2023-02-14T08:21:58;36.38;;;14.65;;
74614;SDS011;63121;51.458;-0.110;2023-02-14T08:24:24;33.80;;;12.68;;
74614;SDS011;63121;51.458;-0.110;2023-02-14T08:26:49;30.92;;;12.70;;
74614;SDS011;63121;51.458;-0.110;2023-02-14T08:29:15;31.25;;;13.30;;
74614;SDS011;63121;51.458;-0.110;2023-02-14T08:31:40;36.47;;;13.88;;
74614;SDS011;63121;51.458;-0.110;2023-02-14T08:34:06;36.83;;;14.10;;
74614;SDS011;63121;51.458;-0.110;2023-02-14T08:36:32;37.35;;;13.90;;
74614;SDS011;63121;51.458;-0.110;2023-02-14T08:38:58;36.55;;;14.25;;
74614;SDS011;63121;51.458;-0.110;2023-02-14T08:41:24;36.53;;;15.07;;
74614;SDS011;63121;51.458;-0.110;2023-02-14T08:43:50;37.17;;;14.40;;
74614;SDS011;63121;51.458;-0.110;2023-02-14T08:46:16;36.55;;;15.13;;
74614;SDS011;63121;51.458;-0.110;2023-02-14T08:48:41;41.22;;;15.48;;
74614;SDS011;63121;51.458;-0.110;2023-02-14T08:51:08;41.92;;;15.57;;
74614;SDS011;63121;51.458;-0.110;2023-02-14T08:53:36;40.30;;;15.70;;
74614;SDS011;63121;51.458;-0.110;2023-02-14T08:56:06;43.45;;;17.83;;
74614;SDS011;63121;51.458;-0.110;2023-02-14T08:58:33;51.05;;;17.65;;
74614;SDS011;63121;51.458;-0.110;2023-02-14T09:01:13;50.40;;;18.63;;
74614;SDS011;63121;51.458;-0.110;2023-02-14T09:03:40;50.90;;;20.23;;
74614;SDS011;63121;51.458;-0.110;2023-02-14T09:06:07;45.28;;;18.42;;
74614;SDS011;63121;51.458;-0.110;2023-02-14T09:08:35;50.45;;;18.38;;
74614;SDS011;63121;51.458;-0.110;2023-02-14T09:13:33;49.08;;;19.23;;
74614;SDS011;63121;51.458;-0.110;2023-02-14T09:16:02;48.15;;;18.33;;
74614;SDS011;63121;51.458;-0.110;2023-02-14T09:18:28;49.03;;;19.58;;
74614;SDS011;63121;51.458;-0.110;2023-02-14T09:20:54;52.30;;;19.90;;
74614;SDS011;63121;51.458;-0.110;2023-02-14T09:23:19;49.42;;;19.98;;
74614;SDS011;63121;51.458;-0.110;2023-02-14T09:25:44;50.43;;;19.97;;
74614;SDS011;63121;51.458;-0.110;2023-02-14T09:28:10;46.03;;;19.20;;
74614;SDS011;63121;51.458;-0.110;2023-02-14T09:30:35;50.43;;;19.90;;
74614;SDS011;63121;51.458;-0.110;2023-02-14T09:33:00;49.30;;;19.03;;
74614;SDS011;63121;51.458;-0.110;2023-02-14T09:35:28;48.80;;;20.02;;
74614;SDS011;63121;51.458;-0.110;2023-02-14T09:38:12;50.05;;;18.85;;
74614;SDS011;63121;51.458;-0.110;2023-02-14T09:40:41;47.95;;;19.33;;
74614;SDS011;63121;51.458;-0.110;2023-02-14T09:43:18;49.75;;;21.20;;
74614;SDS011;63121;51.458;-0.110;2023-02-14T09:45:54;52.35;;;21.15;;
74614;SDS011;63121;51.458;-0.110;2023-02-14T09:48:24;52.75;;;21.17;;
74614;SDS011;63121;51.458;-0.110;2023-02-14T09:51:02;49.05;;;20.42;;
74614;SDS011;63121;51.458;-0.110;2023-02-14T09:53:31;46.20;;;19.55;;
74614;SDS011;63121;51.458;-0.110;2023-02-14T10:01:50;44.58;;;19.52;;
74614;SDS011;63121;51.458;-0.110;2023-02-14T10:07:31;49.17;;;19.75;;
74614;SDS011;63121;51.458;-0.110;2023-02-14T10:10:15;45.85;;;18.17;;
74614;SDS011;63121;51.458;-0.110;2023-02-14T10:12:58;45.60;;;19.85;;
74614;SDS011;63121;51.458;-0.110;2023-02-14T10:15:41;47.80;;;19.75;;
74614;SDS011;63121;51.458;-0.110;2023-02-14T10:18:20;52.58;;;21.40;;
74614;SDS011;63121;51.458;-0.110;2023-02-14T10:20:53;51.45;;;21.23;;
74614;SDS011;63121;51.458;-0.110;2023-02-14T10:23:32;53.00;;;22.08;;
74614;SDS011;63121;51.458;-0.110;2023-02-14T10:26:03;46.85;;;21.02;;
74614;SDS011;63121;51.458;-0.110;2023-02-14T10:28:48;50.70;;;20.88;;
74614;SDS011;63121;51.458;-0.110;2023-02-14T10:33:55;54.00;;;21.80;;
74614;SDS011;63121;51.458;-0.110;2023-02-14T10:37:32;47.78;;;20.85;;
74614;SDS011;63121;51.458;-0.110;2023-02-14T10:39:42;49.90;;;21.45;;
74614;SDS011;63121;51.458;-0.110;2023-02-14T10:42:32;45.05;;;21.17;;
74614;SDS011;63121;51.458;-0.110;2023-02-14T10:53:27;50.33;;;21.20;;
74614;SDS011;63121;51.458;-0.110;2023-02-14T10:56:16;47.33;;;20.63;;
74614;SDS011;63121;51.458;-0.110;2023-02-14T10:58:46;47.50;;;20.73;;
74614;SDS011;63121;51.458;-0.110;2023-02-14T11:01:15;47.53;;;20.30;;
74614;SDS011;63121;51.458;-0.110;2023-02-14T11:03:51;47.35;;;20.20;;
74614;SDS011;63121;51.458;-0.110;2023-02-14T11:06:28;50.15;;;19.98;;
74614;SDS011;63121;51.458;-0.110;2023-02-14T11:08:54;42.67;;;20.67;;
74614;SDS011;63121;51.458;-0.110;2023-02-14T11:11:20;45.38;;;19.70;;
74614;SDS011;63121;51.458;-0.110;2023-02-14T11:13:48;42.33;;;19.67;;
74614;SDS011;63121;51.458;-0.110;2023-02-14T11:16:22;40.30;;;18.15;;
74614;SDS011;63121;51.458;-0.110;2023-02-14T11:21:44;43.67;;;19.33;;
74614;SDS011;63121;51.458;-0.110;2023-02-14T11:24:17;35.95;;;16.98;;
74614;SDS011;63121;51.458;-0.110;2023-02-14T11:26:46;36.72;;;17.40;;
74614;SDS011;63121;51.458;-0.110;2023-02-14T11:29:15;40.47;;;18.77;;
74614;SDS011;63121;51.458;-0.110;2023-02-14T11:31:47;43.97;;;18.13;;
74614;SDS011;63121;51.458;-0.110;2023-02-14T11:34:34;41.75;;;17.33;;
74614;SDS011;63121;51.458;-0.110;2023-02-14T11:37:13;36.25;;;16.45;;
74614;SDS011;63121;51.458;-0.110;2023-02-14T11:40:01;33.92;;;15.15;;
74614;SDS011;63121;51.458;-0.110;2023-02-14T11:48:06;35.45;;;16.13;;
74614;SDS011;63121;51.458;-0.110;2023-02-14T11:50:34;37.33;;;16.15;;
74614;SDS011;63121;51.458;-0.110;2023-02-14T11:53:00;42.78;;;17.02;;
74614;SDS011;63121;51.458;-0.110;2023-02-14T11:55:27;36.40;;;16.10;;
74614;SDS011;63121;51.458;-0.110;2023-02-14T11:57:57;43.38;;;17.25;;
74614;SDS011;63121;51.458;-0.110;2023-02-14T12:00:23;38.90;;;17.45;;
74614;SDS011;63121;51.458;-0.110;2023-02-14T12:02:50;35.03;;;15.10;;
74614;SDS011;63121;51.458;-0.110;2023-02-14T12:07:54;34.20;;;16.38;;
74614;SDS011;63121;51.458;-0.110;2023-02-14T12:10:24;37.90;;;17.15;;
74614;SDS011;63121;51.458;-0.110;2023-02-14T12:13:02;35.55;;;16.27;;
74614;SDS011;63121;51.458;-0.110;2023-02-14T12:20:32;34.47;;;15.17;;
74614;SDS011;63121;51.458;-0.110;2023-02-14T12:29:28;37.88;;;16.05;;
74614;SDS011;63121;51.458;-0.110;2023-02-14T12:32:00;33.22;;;15.25;;
74614;SDS011;63121;51.458;-0.110;2023-02-14T12:34:29;38.92;;;16.05;;
74614;SDS011;63121;51.458;-0.110;2023-02-14T12:50:46;38.47;;;16.55;;
74614;SDS011;63121;51.458;-0.110;2023-02-14T12:53:34;33.35;;;15.85;;
74614;SDS011;63121;51.458;-0.110;2023-02-14T13:01:55;35.05;;;15.15;;
74614;SDS011;63121;51.458;-0.110;2023-02-14T13:07:13;32.35;;;15.43;;
74614;SDS011;63121;51.458;-0.110;2023-02-14T13:09:44;34.20;;;15.00;;
74614;SDS011;63121;51.458;-0.110;2023-02-14T13:23:15;40.28;;;15.77;;
74614;SDS011;63121;51.458;-0.110;2023-02-14T13:25:53;37.25;;;15.25;;
74614;SDS011;63121;51.458;-0.110;2023-02-14T13:28:30;32.58;;;14.70;;
74614;SDS011;63121;51.458;-0.110;2023-02-14T13:30:56;33.67;;;15.60;;
74614;SDS011;63121;51.458;-0.110;2023-02-14T13:35:55;30.58;;;14.77;;
74614;SDS011;63121;51.458;-0.110;2023-02-14T13:38:23;34.10;;;14.60;;
74614;SDS011;63121;51.458;-0.110;2023-02-14T13:40:50;33.65;;;14.68;;
74614;SDS011;63121;51.458;-0.110;2023-02-14T13:46:13;33.28;;;14.88;;
74614;SDS011;63121;51.458;-0.110;2023-02-14T13:48:41;30.98;;;14.30;;
74614;SDS011;63121;51.458;-0.110;2023-02-14T13:51:07;32.97;;;15.02;;
74614;SDS011;63121;51.458;-0.110;2023-02-14T13:55:59;30.93;;;15.27;;
74614;SDS011;63121;51.458;-0.110;2023-02-14T13:58:27;34.22;;;13.90;;
74614;SDS011;63121;51.458;-0.110;2023-02-14T14:00:53;32.20;;;14.38;;
74614;SDS011;63121;51.458;-0.110;2023-02-14T14:06:06;31.67;;;14.57;;
74614;SDS011;63121;51.458;-0.110;2023-02-14T14:08:40;30.40;;;14.40;;
74614;SDS011;63121;51.458;-0.110;2023-02-14T14:11:12;32.60;;;14.13;;
74614;SDS011;63121;51.458;-0.110;2023-02-14T14:19:03;35.65;;;14.65;;
74614;SDS011;63121;51.458;-0.110;2023-02-14T14:24:51;31.35;;;14.45;;
74614;SDS011;63121;51.458;-0.110;2023-02-14T14:28:01;37.08;;;15.30;;
74614;SDS011;63121;51.458;-0.110;2023-02-14T14:30:15;30.02;;;13.65;;
74614;SDS011;63121;51.458;-0.110;2023-02-14T14:32:46;31.67;;;14.32;;
74614;SDS011;63121;51.458;-0.110;2023-02-14T14:37:47;32.07;;;14.47;;
74614;SDS011;63121;51.458;-0.110;2023-02-14T14:42:51;30.92;;;13.57;;
74614;SDS011;63121;51.458;-0.110;2023-02-14T14:45:24;35.78;;;15.82;;
74614;SDS011;63121;51.458;-0.110;2023-02-14T14:47:53;30.45;;;15.00;;
74614;SDS011;63121;51.458;-0.110;2023-02-14T14:50:24;33.40;;;14.90;;
74614;SDS011;63121;51.458;-0.110;2023-02-14T14:53:03;24.55;;;12.20;;
74614;SDS011;63121;51.458;-0.110;2023-02-14T14:55:37;17.73;;;7.25;;
74614;SDS011;63121;51.458;-0.110;2023-02-14T14:58:28;14.70;;;6.28;;
74614;SDS011;63121;51.458;-0.110;2023-02-14T15:00:56;15.18;;;6.38;;
74614;SDS011;63121;51.458;-0.110;2023-02-14T15:03:23;12.85;;;5.78;;
74614;SDS011;63121;51.458;-0.110;2023-02-14T15:05:51;13.50;;;5.72;;
74614;SDS011;63121;51.458;-0.110;2023-02-14T15:08:29;14.88;;;5.68;;
74614;SDS011;63121;51.458;-0.110;2023-02-14T15:13:59;14.77;;;5.25;;
74614;SDS011;63121;51.458;-0.110;2023-02-14T15:19:38;12.35;;;4.45;;
74614;SDS011;63121;51.458;-0.110;2023-02-14T15:22:05;12.57;;;5.13;;
74614;SDS011;63121;51.458;-0.110;2023-02-14T15:24:42;11.40;;;4.70;;
74614;SDS011;63121;51.458;-0.110;2023-02-14T15:27:10;13.80;;;4.15;;
74614;SDS011;63121;51.458;-0.110;2023-02-14T15:29:40;13.23;;;4.95;;
74614;SDS011;63121;51.458;-0.110;2023-02-14T15:32:07;13.45;;;5.40;;
74614;SDS011;63121;51.458;-0.110;2023-02-14T15:34:34;16.92;;;5.38;;
74614;SDS011;63121;51.458;-0.110;2023-02-14T15:37:00;12.88;;;4.95;;
74614;SDS011;63121;51.458;-0.110;2023-02-14T15:39:37;12.77;;;4.90;;
74614;SDS011;63121;51.458;-0.110;2023-02-14T15:42:16;13.75;;;5.05;;
74614;SDS011;63121;51.458;-0.110;2023-02-14T15:45:14;11.88;;;4.88;;
74614;SDS011;63121;51.458;-0.110;2023-02-14T15:48:32;12.35;;;5.05;;
74614;SDS011;63121;51.458;-0.110;2023-02-14T15:50:45;14.35;;;5.50;;
74614;SDS011;63121;51.458;-0.110;2023-02-14T15:56:17;13.13;;;6.13;;
74614;SDS011;63121;51.458;-0.110;2023-02-14T15:58:43;14.13;;;5.15;;
74614;SDS011;63121;51.458;-0.110;2023-02-14T16:01:09;15.95;;;5.80;;
74614;SDS011;63121;51.458;-0.110;2023-02-14T16:03:36;12.68;;;5.30;;
74614;SDS011;63121;51.458;-0.110;2023-02-14T16:06:04;12.68;;;5.55;;
74614;SDS011;63121;51.458;-0.110;2023-02-14T16:08:34;15.70;;;5.72;;
74614;SDS011;63121;51.458;-0.110;2023-02-14T16:11:06;14.35;;;5.13;;
74614;SDS011;63121;51.458;-0.110;2023-02-14T16:14:18;15.40;;;5.50;;
74614;SDS011;63121;51.458;-0.110;2023-02-14T16:17:10;15.15;;;5.45;;
74614;SDS011;63121;51.458;-0.110;2023-02-14T16:19:38;14.07;;;5.30;;
74614;SDS011;63121;51.458;-0.110;2023-02-14T16:22:22;15.98;;;5.70;;
74614;SDS011;63121;51.458;-0.110;2023-02-14T16:24:49;13.85;;;5.28;;
74614;SDS011;63121;51.458;-0.110;2023-02-14T16:27:15;17.20;;;5.35;;
74614;SDS011;63121;51.458;-0.110;2023-02-14T16:29:40;13.27;;;5.57;;
74614;SDS011;63121;51.458;-0.110;2023-02-14T16:32:10;12.45;;;4.97;;
74614;SDS011;63121;51.458;-0.110;2023-02-14T16:37:04;15.88;;;5.72;;
74614;SDS011;63121;51.458;-0.110;2023-02-14T16:39:32;16.13;;;6.03;;
74614;SDS011;63121;51.458;-0.110;2023-02-14T16:41:58;14.15;;;5.78;;
74614;SDS011;63121;51.458;-0.110;2023-02-14T16:44:24;13.30;;;5.68;;
74614;SDS011;63121;51.458;-0.110;2023-02-14T16:46:49;14.13;;;5.47;;
74614;SDS011;63121;51.458;-0.110;2023-02-14T16:49:14;13.80;;;5.80;;
74614;SDS011;63121;51.458;-0.110;2023-02-14T16:51:41;13.77;;;6.07;;
74614;SDS011;63121;51.458;-0.110;2023-02-14T16:54:16;15.65;;;6.05;;
74614;SDS011;63121;51.458;-0.110;2023-02-14T16:59:18;16.70;;;5.85;;
74614;SDS011;63121;51.458;-0.110;2023-02-14T17:01:43;17.42;;;6.68;;
74614;SDS011;63121;51.458;-0.110;2023-02-14T17:04:09;14.70;;;6.05;;
74614;SDS011;63121;51.458;-0.110;2023-02-14T17:06:35;17.27;;;6.30;;
74614;SDS011;63121;51.458;-0.110;2023-02-14T17:09:05;15.95;;;6.75;;
74614;SDS011;63121;51.458;-0.110;2023-02-14T17:11:34;17.65;;;6.47;;
74614;SDS011;63121;51.458;-0.110;2023-02-14T17:14:02;17.73;;;6.78;;
74614;SDS011;63121;51.458;-0.110;2023-02-14T17:16:28;18.90;;;6.53;;
74614;SDS011;63121;51.458;-0.110;2023-02-14T17:21:21;19.73;;;6.33;;